Time;durP1;ratioP1;P1;durP2;ratioP2;P2;SDS_P1;SDS_P2;PMS_P1;PMS_P2;Temp;Humidity;BMP_temperature;BMP_pressure;BME280_temperature;BME280_humidity;BME280_pressure;Samples;Min_cycle;Max_cycle;Signal;HPM_P1;HPM_P2
2023/12/26 00:00:39;;;;;;;5.07;1.87;;;9.40;99.90;;;;;;5101632;27;20484;-78
2023/12/26 00:03:06;;;;;;;3.90;1.70;;;9.40;99.90;;;;;;5090383;28;20438;-78
2023/12/26 00:05:35;;;;;;;5.70;1.70;;;9.40;99.90;;;;;;5090064;28;20421;-78
2023/12/26 00:08:04;;;;;;;3.97;1.50;;;9.40;99.90;;;;;;5089171;28;20455;-78
2023/12/26 00:10:30;;;;;;;3.03;1.17;;;9.40;99.90;;;;;;5088686;28;20413;-79
2023/12/26 00:12:56;;;;;;;3.40;1.23;;;9.40;99.90;;;;;;5075932;28;20935;-78
2023/12/26 00:15:21;;;;;;;3.40;1.27;;;9.40;99.90;;;;;;5075183;28;20415;-79
2023/12/26 00:17:47;;;;;;;4.50;1.40;;;9.40;99.90;;;;;;5089886;28;20966;-79
2023/12/26 00:20:13;;;;;;;4.15;1.30;;;9.40;99.90;;;;;;5089680;28;20429;-79
2023/12/26 00:22:39;;;;;;;3.93;1.70;;;9.50;99.90;;;;;;5089759;28;20780;-79
2023/12/26 00:25:06;;;;;;;3.85;1.55;;;9.50;99.90;;;;;;5089446;28;20489;-79
2023/12/26 00:27:31;;;;;;;3.85;1.73;;;9.50;99.90;;;;;;5083076;28;20396;-78
2023/12/26 00:29:57;;;;;;;4.30;1.65;;;9.50;99.90;;;;;;5094328;28;20846;-78
2023/12/26 00:32:23;;;;;;;4.00;1.67;;;9.50;99.90;;;;;;5088925;28;20444;-78
2023/12/26 00:34:48;;;;;;;2.97;1.30;;;9.50;99.90;;;;;;5087616;28;20449;-78
2023/12/26 00:37:14;;;;;;;3.80;1.50;;;9.50;99.90;;;;;;5088362;28;20410;-77
2023/12/26 00:39:40;;;;;;;4.63;1.45;;;9.50;99.90;;;;;;5089282;28;20438;-77
2023/12/26 00:42:06;;;;;;;3.87;1.30;;;9.60;99.90;;;;;;5106114;28;20404;-77
2023/12/26 00:44:31;;;;;;;3.60;1.10;;;9.50;99.90;;;;;;5096474;28;20397;-77
2023/12/26 00:46:57;;;;;;;3.10;0.80;;;9.60;99.90;;;;;;5088759;28;20402;-77
2023/12/26 00:49:22;;;;;;;3.60;0.93;;;9.60;99.90;;;;;;5088585;28;20410;-77
2023/12/26 00:51:48;;;;;;;1.88;0.70;;;9.60;99.90;;;;;;5093053;28;20929;-77
2023/12/26 00:54:13;;;;;;;4.43;0.90;;;9.60;99.90;;;;;;5107967;28;20391;-78
2023/12/26 00:56:39;;;;;;;3.08;0.90;;;9.70;99.90;;;;;;5105797;28;20923;-78
2023/12/26 00:59:05;;;;;;;3.00;0.90;;;9.70;99.90;;;;;;5106240;28;20424;-77
2023/12/26 01:01:30;;;;;;;3.57;1.27;;;9.60;99.90;;;;;;5105965;28;20782;-78
2023/12/26 01:03:56;;;;;;;3.35;1.00;;;9.70;99.90;;;;;;5106252;28;20955;-77
2023/12/26 01:06:21;;;;;;;2.90;0.97;;;9.70;99.90;;;;;;5104265;28;20408;-77
2023/12/26 01:08:47;;;;;;;4.97;1.50;;;9.70;99.90;;;;;;5105933;28;20415;-77
2023/12/26 01:11:13;;;;;;;4.57;1.20;;;9.70;99.90;;;;;;5104373;28;20413;-78
2023/12/26 01:13:38;;;;;;;2.60;0.90;;;9.70;99.90;;;;;;5106211;28;20415;-78
2023/12/26 01:16:04;;;;;;;3.73;0.90;;;9.70;99.90;;;;;;5100287;28;20446;-78
2023/12/26 01:18:31;;;;;;;4.10;0.70;;;9.70;99.90;;;;;;5098036;28;20457;-77
2023/12/26 01:20:57;;;;;;;4.60;0.80;;;9.70;99.90;;;;;;5092223;28;20401;-79
2023/12/26 01:23:23;;;;;;;3.85;1.00;;;9.70;99.90;;;;;;5106510;28;20495;-79
2023/12/26 01:25:48;;;;;;;2.80;0.50;;;9.80;99.90;;;;;;5093199;28;20426;-79
2023/12/26 01:28:15;;;;;;;5.22;0.77;;;9.80;99.90;;;;;;5083101;28;20407;-78
2023/12/26 01:30:41;;;;;;;3.30;1.05;;;9.70;99.90;;;;;;5091280;28;20438;-78
2023/12/26 01:33:07;;;;;;;4.95;1.17;;;9.80;99.90;;;;;;5107157;28;20423;-78
2023/12/26 01:35:33;;;;;;;4.03;0.90;;;9.80;99.90;;;;;;5093740;28;20396;-78
2023/12/26 01:37:59;;;;;;;4.33;0.90;;;9.80;99.90;;;;;;5106707;28;20414;-78
2023/12/26 01:40:24;;;;;;;3.90;0.68;;;9.80;99.90;;;;;;5105760;28;20413;-78
2023/12/26 01:42:50;;;;;;;5.30;0.90;;;9.80;99.90;;;;;;5106873;28;20479;-78
2023/12/26 01:45:16;;;;;;;5.40;0.70;;;9.80;99.90;;;;;;5093531;28;20408;-78
2023/12/26 01:47:50;;;;;;;6.30;0.93;;;9.80;99.90;;;;;;5106996;28;20430;-78
2023/12/26 01:50:16;;;;;;;5.85;0.77;;;9.80;99.90;;;;;;5105061;28;20485;-78
2023/12/26 01:52:42;;;;;;;7.70;1.10;;;9.80;99.90;;;;;;5107007;28;20419;-78
2023/12/26 01:55:09;;;;;;;7.72;1.10;;;9.80;99.90;;;;;;5105813;28;20807;-78
2023/12/26 01:57:35;;;;;;;9.05;1.08;;;9.80;99.90;;;;;;5105096;28;20411;-78
2023/12/26 02:00:04;;;;;;;7.20;1.10;;;9.80;99.90;;;;;;5105058;28;20428;-78
2023/12/26 02:02:32;;;;;;;12.77;1.45;;;9.70;99.90;;;;;;5105996;28;20484;-78
2023/12/26 02:04:58;;;;;;;12.25;1.40;;;9.80;99.90;;;;;;5105141;28;20497;-78
2023/12/26 02:07:25;;;;;;;10.90;1.20;;;9.80;99.90;;;;;;5105681;28;20396;-78
2023/12/26 02:09:50;;;;;;;11.18;1.73;;;9.70;99.90;;;;;;5105684;28;20404;-78
2023/12/26 02:12:16;;;;;;;10.98;1.38;;;9.70;99.90;;;;;;5105014;28;20392;-78
2023/12/26 02:14:43;;;;;;;11.57;1.40;;;9.70;99.90;;;;;;5099321;28;20407;-78
2023/12/26 02:17:15;;;;;;;12.23;1.52;;;9.70;99.90;;;;;;5098825;28;20865;-78
2023/12/26 02:19:42;;;;;;;11.32;1.50;;;9.60;99.90;;;;;;5094966;28;20409;-78
2023/12/26 02:22:08;;;;;;;9.07;1.70;;;9.70;99.90;;;;;;5103558;28;20428;-78
2023/12/26 02:24:33;;;;;;;13.68;1.92;;;9.70;99.90;;;;;;5104647;28;20902;-78
2023/12/26 02:27:00;;;;;;;11.27;1.45;;;9.70;99.90;;;;;;5102707;28;20914;-78
2023/12/26 02:29:27;;;;;;;13.98;1.70;;;9.60;99.90;;;;;;5095094;28;20399;-78
2023/12/26 02:31:54;;;;;;;12.60;1.63;;;9.70;99.90;;;;;;5104506;28;20488;-78
2023/12/26 02:34:21;;;;;;;11.73;1.77;;;9.70;99.90;;;;;;5108256;28;20407;-78
2023/12/26 02:36:47;;;;;;;11.57;1.42;;;9.70;99.90;;;;;;5107632;28;20423;-78
2023/12/26 02:39:14;;;;;;;11.40;2.03;;;9.70;99.90;;;;;;5108528;28;20786;-78
2023/12/26 02:41:40;;;;;;;14.70;1.90;;;9.70;99.90;;;;;;5105081;28;20404;-78
2023/12/26 02:44:06;;;;;;;12.15;1.77;;;9.70;99.90;;;;;;5107480;28;20415;-78
2023/12/26 02:46:31;;;;;;;14.40;2.22;;;9.70;99.90;;;;;;5104080;28;20404;-78
2023/12/26 02:48:57;;;;;;;13.87;1.90;;;9.70;99.90;;;;;;5108456;28;20781;-78
2023/12/26 02:51:22;;;;;;;12.60;2.25;;;9.70;99.90;;;;;;5095166;28;20446;-78
2023/12/26 02:53:48;;;;;;;15.97;2.13;;;9.60;99.90;;;;;;5108383;28;20764;-78
2023/12/26 02:56:14;;;;;;;16.20;2.92;;;9.60;99.90;;;;;;5105629;28;20489;-78
2023/12/26 02:58:40;;;;;;;18.23;2.50;;;9.60;99.90;;;;;;5105954;28;20428;-78
2023/12/26 03:01:06;;;;;;;12.07;1.67;;;9.60;99.90;;;;;;5104286;28;20412;-78
2023/12/26 03:03:31;;;;;;;14.07;2.17;;;9.50;99.90;;;;;;5105372;28;20416;-78
2023/12/26 03:05:57;;;;;;;11.77;2.10;;;9.50;99.90;;;;;;5093731;28;20434;-78
2023/12/26 03:08:23;;;;;;;13.98;2.47;;;9.50;99.90;;;;;;5105577;28;20396;-78
2023/12/26 03:10:49;;;;;;;14.27;2.67;;;9.40;99.90;;;;;;5092938;28;20510;-78
2023/12/26 03:13:15;;;;;;;13.45;2.50;;;9.40;99.90;;;;;;5105649;28;20851;-78
2023/12/26 03:15:40;;;;;;;11.85;1.80;;;9.40;99.90;;;;;;5101287;28;20425;-78
2023/12/26 03:18:06;;;;;;;12.70;2.10;;;9.40;99.90;;;;;;5104256;28;20397;-78
2023/12/26 03:20:32;;;;;;;13.23;2.08;;;9.30;99.90;;;;;;5102353;28;20759;-78
2023/12/26 03:22:57;;;;;;;18.02;2.83;;;9.20;99.90;;;;;;5103992;28;20529;-78
2023/12/26 03:25:23;;;;;;;14.07;2.73;;;9.20;99.90;;;;;;5101265;28;20454;-78
2023/12/26 03:27:49;;;;;;;16.10;2.30;;;9.10;99.80;;;;;;5089742;28;20399;-78
2023/12/26 03:30:15;;;;;;;16.48;2.70;;;9.10;99.90;;;;;;5085397;28;20398;-78
2023/12/26 03:32:40;;;;;;;12.40;1.95;;;9.10;99.90;;;;;;5090398;28;20540;-78
2023/12/26 03:35:06;;;;;;;15.87;2.77;;;9.00;99.70;;;;;;5089829;28;20398;-78
2023/12/26 03:37:32;;;;;;;15.15;2.38;;;9.00;99.70;;;;;;5090202;28;20414;-78
2023/12/26 03:39:58;;;;;;;13.93;2.20;;;9.00;99.50;;;;;;5104965;28;20427;-78
2023/12/26 03:42:23;;;;;;;14.47;2.37;;;9.00;99.10;;;;;;5109717;28;20419;-78
2023/12/26 03:44:49;;;;;;;12.50;2.55;;;9.00;98.80;;;;;;5106718;28;20471;-78
2023/12/26 03:47:14;;;;;;;10.50;2.03;;;8.90;98.80;;;;;;5097692;27;20407;-78
2023/12/26 03:49:40;;;;;;;13.90;2.10;;;8.90;98.70;;;;;;5107574;28;20408;-78
2023/12/26 03:52:06;;;;;;;14.13;2.13;;;8.90;98.50;;;;;;5108064;28;20412;-78
2023/12/26 03:54:31;;;;;;;13.97;2.37;;;8.80;98.60;;;;;;5105892;28;20405;-78
2023/12/26 03:56:57;;;;;;;10.60;2.28;;;8.80;98.30;;;;;;5103894;28;20489;-78
2023/12/26 03:59:22;;;;;;;12.33;2.30;;;8.80;98.50;;;;;;5084060;28;20430;-78
2023/12/26 04:01:48;;;;;;;14.20;2.10;;;8.80;98.60;;;;;;5087980;28;20405;-78
2023/12/26 04:04:13;;;;;;;14.87;2.30;;;8.80;98.00;;;;;;5090886;28;20402;-78
2023/12/26 04:06:39;;;;;;;16.40;2.25;;;8.80;97.80;;;;;;5094978;28;20409;-78
2023/12/26 04:09:05;;;;;;;10.77;1.77;;;8.90;97.50;;;;;;5093687;28;20449;-78
2023/12/26 04:11:32;;;;;;;10.80;1.90;;;8.90;96.90;;;;;;5107248;28;20774;-78
2023/12/26 04:13:57;;;;;;;13.25;2.00;;;8.90;96.50;;;;;;5092691;28;20913;-78
2023/12/26 04:16:23;;;;;;;13.60;2.40;;;8.80;94.50;;;;;;5096652;28;20500;-78
2023/12/26 04:18:49;;;;;;;13.07;2.20;;;8.80;94.00;;;;;;5070888;28;20449;-78
2023/12/26 04:21:14;;;;;;;14.07;2.13;;;8.80;93.20;;;;;;5095980;28;20495;-78
2023/12/26 04:23:40;;;;;;;14.57;2.50;;;8.70;93.60;;;;;;5091842;28;20413;-78
2023/12/26 04:26:06;;;;;;;23.17;2.97;;;8.70;92.20;;;;;;5107741;28;20408;-78
2023/12/26 04:28:31;;;;;;;16.70;2.70;;;8.60;92.10;;;;;;5093701;28;20443;-78
2023/12/26 04:30:57;;;;;;;13.20;2.27;;;8.60;91.70;;;;;;5105506;28;20898;-78
2023/12/26 04:33:25;;;;;;;15.82;2.33;;;8.60;90.20;;;;;;5090967;28;20433;-78
2023/12/26 04:35:50;;;;;;;15.20;3.07;;;8.60;86.90;;;;;;5102576;28;20948;-78
2023/12/26 04:38:16;;;;;;;14.57;2.80;;;8.60;85.60;;;;;;5100579;28;20509;-78
2023/12/26 04:40:41;;;;;;;18.17;3.40;;;8.50;88.10;;;;;;5089474;28;20447;-78
2023/12/26 04:43:08;;;;;;;19.27;3.00;;;8.50;86.70;;;;;;5107621;28;20472;-78
2023/12/26 04:45:38;;;;;;;21.48;3.22;;;8.50;87.10;;;;;;5104710;28;20423;-78
2023/12/26 04:48:07;;;;;;;23.17;3.20;;;8.50;87.70;;;;;;5097375;28;20396;-77
2023/12/26 04:50:34;;;;;;;17.95;2.90;;;8.50;87.50;;;;;;5107117;28;20472;-78
2023/12/26 04:53:01;;;;;;;16.23;2.88;;;8.40;86.20;;;;;;5106337;28;20395;-78
2023/12/26 04:55:26;;;;;;;22.57;2.73;;;8.40;88.10;;;;;;5101333;28;20529;-78
2023/12/26 04:57:52;;;;;;;22.93;3.90;;;8.40;87.60;;;;;;5096152;28;20483;-78
2023/12/26 05:00:18;;;;;;;18.38;3.50;;;8.40;88.40;;;;;;5102371;28;21090;-78
2023/12/26 05:02:43;;;;;;;20.93;3.53;;;8.40;88.70;;;;;;5105622;27;20392;-78
2023/12/26 05:05:09;;;;;;;16.58;2.72;;;8.40;88.70;;;;;;5091922;28;20456;-78
2023/12/26 05:07:34;;;;;;;23.07;3.27;;;8.40;89.20;;;;;;5097705;28;20463;-78
2023/12/26 05:10:00;;;;;;;21.40;3.30;;;8.40;88.30;;;;;;5088526;28;20406;-77
2023/12/26 05:12:27;;;;;;;19.83;2.97;;;8.40;88.70;;;;;;5107497;28;20476;-77
2023/12/26 05:14:53;;;;;;;22.00;3.13;;;8.40;88.80;;;;;;5105368;28;21514;-78
2023/12/26 05:17:18;;;;;;;19.53;3.30;;;8.40;88.50;;;;;;5106204;28;20456;-78
2023/12/26 05:19:44;;;;;;;23.77;3.78;;;8.40;88.90;;;;;;5093283;28;20792;-77
2023/12/26 05:22:10;;;;;;;14.57;2.70;;;8.40;89.90;;;;;;5105746;28;20408;-78
2023/12/26 05:24:36;;;;;;;15.80;2.75;;;8.50;87.90;;;;;;5091899;28;21033;-78
2023/12/26 05:27:01;;;;;;;20.63;2.90;;;8.40;87.10;;;;;;5105981;28;20411;-77
2023/12/26 05:29:27;;;;;;;18.00;3.50;;;8.40;87.70;;;;;;5103099;28;20396;-78
2023/12/26 05:31:53;;;;;;;15.47;2.60;;;8.50;87.40;;;;;;5094577;28;20401;-78
2023/12/26 05:34:19;;;;;;;18.83;2.90;;;8.40;88.90;;;;;;5092513;28;20506;-77
2023/12/26 05:36:45;;;;;;;14.73;2.90;;;8.50;87.20;;;;;;5106441;28;20396;-77
2023/12/26 05:39:10;;;;;;;16.07;2.67;;;8.40;86.80;;;;;;5102775;28;20530;-77
2023/12/26 05:41:36;;;;;;;15.52;2.72;;;8.50;86.80;;;;;;5106484;28;20936;-78
2023/12/26 05:44:02;;;;;;;15.43;3.07;;;8.50;85.40;;;;;;5102682;28;20851;-78
2023/12/26 05:46:31;;;;;;;18.85;2.83;;;8.50;84.70;;;;;;5105413;28;20400;-77
2023/12/26 05:48:57;;;;;;;14.70;2.60;;;8.50;85.90;;;;;;5101578;28;21912;-77
2023/12/26 05:51:24;;;;;;;19.57;3.10;;;8.50;85.30;;;;;;5105610;28;20893;-77
2023/12/26 05:53:49;;;;;;;19.27;3.03;;;8.50;85.60;;;;;;5100632;28;20406;-77
2023/12/26 05:56:15;;;;;;;18.20;3.20;;;8.50;84.90;;;;;;5103587;28;20738;-78
2023/12/26 05:58:41;;;;;;;17.52;2.53;;;8.50;84.80;;;;;;5099210;28;20500;-77
2023/12/26 06:01:10;;;;;;;15.17;2.60;;;8.50;84.40;;;;;;5096072;28;20412;-77
2023/12/26 06:03:37;;;;;;;13.32;2.75;;;8.50;83.90;;;;;;5095749;28;20406;-77
2023/12/26 06:06:03;;;;;;;14.50;2.63;;;8.50;83.70;;;;;;5096448;28;21000;-77
2023/12/26 06:08:29;;;;;;;13.52;2.47;;;8.50;83.40;;;;;;5088321;28;20796;-77
2023/12/26 06:10:54;;;;;;;16.47;2.80;;;8.50;81.80;;;;;;5109216;28;20400;-78
2023/12/26 06:13:21;;;;;;;17.83;2.67;;;8.50;77.10;;;;;;5107639;28;20413;-77
2023/12/26 06:15:46;;;;;;;13.17;2.37;;;8.50;78.50;;;;;;5109011;28;20408;-78
2023/12/26 06:18:13;;;;;;;19.70;3.67;;;8.50;79.20;;;;;;5108957;28;20583;-77
2023/12/26 06:20:38;;;;;;;16.20;2.53;;;8.50;78.90;;;;;;5110820;28;20428;-77
2023/12/26 06:23:04;;;;;;;14.33;2.10;;;8.40;79.30;;;;;;5108263;28;20408;-77
2023/12/26 06:25:30;;;;;;;15.82;2.58;;;8.40;79.80;;;;;;5109011;28;20444;-77
2023/12/26 06:27:55;;;;;;;13.63;2.80;;;8.40;79.90;;;;;;5094628;28;20900;-77
2023/12/26 06:30:21;;;;;;;11.55;2.40;;;8.40;81.60;;;;;;5109558;28;20491;-77
2023/12/26 06:32:46;;;;;;;14.20;2.83;;;8.40;82.00;;;;;;5094319;28;20403;-77
2023/12/26 06:35:12;;;;;;;13.57;2.20;;;8.40;82.80;;;;;;5091335;28;20439;-77
2023/12/26 06:37:38;;;;;;;15.90;2.50;;;8.40;83.40;;;;;;5104498;28;20460;-77
2023/12/26 06:40:04;;;;;;;13.80;2.23;;;8.50;83.50;;;;;;5109871;28;20460;-77
2023/12/26 06:42:29;;;;;;;12.32;2.15;;;8.40;84.40;;;;;;5095453;28;20775;-77
2023/12/26 06:44:55;;;;;;;17.20;2.78;;;8.40;85.00;;;;;;5109017;28;20400;-77
2023/12/26 06:47:21;;;;;;;15.10;2.07;;;8.50;85.90;;;;;;5094867;28;20414;-77
2023/12/26 06:49:47;;;;;;;12.50;1.98;;;8.50;85.80;;;;;;5108993;28;20493;-77
2023/12/26 06:52:14;;;;;;;16.73;2.30;;;8.50;85.30;;;;;;5106945;28;20401;-77
2023/12/26 06:54:41;;;;;;;13.73;2.65;;;8.50;85.40;;;;;;5109412;27;20449;-77
2023/12/26 06:57:08;;;;;;;16.08;2.47;;;8.50;84.70;;;;;;5105522;28;20452;-77
2023/12/26 06:59:34;;;;;;;14.50;2.28;;;8.60;85.40;;;;;;5107949;28;20432;-77
2023/12/26 07:02:00;;;;;;;18.90;2.53;;;8.50;84.90;;;;;;5106144;28;20463;-77
2023/12/26 07:04:26;;;;;;;12.18;2.17;;;8.50;84.90;;;;;;5109439;28;20392;-77
2023/12/26 07:06:52;;;;;;;14.10;2.30;;;8.40;84.00;;;;;;5103519;28;20903;-77
2023/12/26 07:09:18;;;;;;;13.67;2.77;;;8.40;83.70;;;;;;5090818;28;20410;-77
2023/12/26 07:11:43;;;;;;;15.88;2.63;;;8.40;84.60;;;;;;5105445;28;20419;-77
2023/12/26 07:14:09;;;;;;;15.97;2.67;;;8.40;83.70;;;;;;5109881;27;20507;-77
2023/12/26 07:16:35;;;;;;;13.40;2.50;;;8.30;83.80;;;;;;5092658;28;20414;-77
2023/12/26 07:19:01;;;;;;;14.98;2.60;;;8.30;83.60;;;;;;5097532;28;20396;-77
2023/12/26 07:21:27;;;;;;;16.02;2.63;;;8.30;83.90;;;;;;5106007;28;20463;-77
2023/12/26 07:23:53;;;;;;;14.57;2.67;;;8.30;83.70;;;;;;5100143;28;20402;-77
2023/12/26 07:26:21;;;;;;;15.70;2.85;;;8.40;83.70;;;;;;5102447;28;20488;-77
2023/12/26 07:28:47;;;;;;;19.27;2.78;;;8.40;82.70;;;;;;5090611;28;20400;-77
2023/12/26 07:31:20;;;;;;;19.63;3.20;;;8.40;83.90;;;;;;5106344;28;20438;-77
2023/12/26 07:33:47;;;;;;;16.43;2.80;;;8.40;83.20;;;;;;5107545;28;20444;-77
2023/12/26 07:36:13;;;;;;;17.25;3.30;;;8.40;82.90;;;;;;5105742;28;20532;-77
2023/12/26 07:38:39;;;;;;;19.27;3.50;;;8.40;82.10;;;;;;5107388;28;20408;-77
2023/12/26 07:41:04;;;;;;;18.13;3.10;;;8.40;81.30;;;;;;5105545;28;20412;-77
2023/12/26 07:43:30;;;;;;;16.27;3.53;;;8.40;82.30;;;;;;5107726;28;20467;-77
2023/12/26 07:45:56;;;;;;;17.35;2.53;;;8.30;83.10;;;;;;5104622;28;20409;-77
2023/12/26 07:48:21;;;;;;;19.60;3.40;;;8.30;83.10;;;;;;5108361;28;20397;-77
2023/12/26 07:50:47;;;;;;;18.07;2.53;;;8.30;82.70;;;;;;5105926;28;20403;-77
2023/12/26 07:53:13;;;;;;;19.20;3.15;;;8.30;83.00;;;;;;5108337;28;20396;-77
2023/12/26 07:55:38;;;;;;;17.37;3.07;;;8.40;82.00;;;;;;5105172;28;20404;-77
2023/12/26 07:58:05;;;;;;;21.13;3.08;;;8.30;82.40;;;;;;5107426;28;20388;-77
2023/12/26 08:00:30;;;;;;;18.10;3.33;;;8.40;82.10;;;;;;5104256;28;20472;-77
2023/12/26 08:02:56;;;;;;;16.13;2.90;;;8.40;82.40;;;;;;5107034;28;20475;-77
2023/12/26 08:05:22;;;;;;;17.88;3.00;;;8.40;82.80;;;;;;5101830;28;20410;-77
2023/12/26 08:07:47;;;;;;;18.23;3.50;;;8.40;82.60;;;;;;5088852;28;20776;-77
2023/12/26 08:10:13;;;;;;;18.13;3.17;;;8.40;82.10;;;;;;5090399;28;20415;-77
2023/12/26 08:12:38;;;;;;;15.87;2.70;;;8.40;83.00;;;;;;5107920;28;20483;-77
2023/12/26 08:15:05;;;;;;;21.20;3.00;;;8.40;82.50;;;;;;5076486;28;20938;-77
2023/12/26 08:17:30;;;;;;;15.68;3.08;;;8.40;82.80;;;;;;5107797;28;20392;-77
2023/12/26 08:19:56;;;;;;;18.07;3.47;;;8.40;82.70;;;;;;5105639;28;20985;-77
2023/12/26 08:22:21;;;;;;;15.83;2.97;;;8.40;82.50;;;;;;5107534;28;20445;-77
2023/12/26 08:24:48;;;;;;;17.30;2.92;;;8.40;82.10;;;;;;5104235;28;20398;-77
2023/12/26 08:27:13;;;;;;;16.98;2.90;;;8.40;82.80;;;;;;5106874;28;20400;-77
2023/12/26 08:29:39;;;;;;;15.27;3.07;;;8.40;82.80;;;;;;5102732;28;20443;-77
2023/12/26 08:32:05;;;;;;;16.33;3.23;;;8.40;81.90;;;;;;5106129;28;20452;-77
2023/12/26 08:34:30;;;;;;;19.98;2.90;;;8.40;82.80;;;;;;5101893;28;20406;-77
2023/12/26 08:36:56;;;;;;;16.67;2.40;;;8.40;82.60;;;;;;5104174;28;20417;-77
2023/12/26 08:39:21;;;;;;;17.52;2.58;;;8.40;82.60;;;;;;5101923;28;20425;-77
2023/12/26 08:41:47;;;;;;;20.43;3.00;;;8.40;81.80;;;;;;5105370;28;20408;-77
2023/12/26 08:44:12;;;;;;;14.97;2.70;;;8.50;80.90;;;;;;5099764;28;20434;-77
2023/12/26 08:46:39;;;;;;;16.95;2.83;;;8.40;80.60;;;;;;5096393;28;20457;-77
2023/12/26 08:49:04;;;;;;;14.15;2.90;;;8.50;80.60;;;;;;5097089;28;20406;-77
2023/12/26 08:51:30;;;;;;;17.07;2.40;;;8.50;81.10;;;;;;5096368;28;20393;-77
2023/12/26 08:53:56;;;;;;;17.33;2.67;;;8.50;80.90;;;;;;5077530;28;20524;-77
2023/12/26 08:56:25;;;;;;;16.40;3.00;;;8.50;79.70;;;;;;5089090;28;20406;-77
2023/12/26 08:58:50;;;;;;;16.67;2.47;;;8.50;79.10;;;;;;5086373;28;20425;-77
2023/12/26 09:01:16;;;;;;;18.27;3.27;;;8.50;79.50;;;;;;5079993;28;20419;-77
2023/12/26 09:03:42;;;;;;;14.18;2.60;;;8.50;79.30;;;;;;5074455;28;20513;-77
2023/12/26 09:06:11;;;;;;;17.08;2.55;;;8.50;80.30;;;;;;5077885;28;20402;-77
2023/12/26 09:08:37;;;;;;;15.73;3.10;;;8.50;79.20;;;;;;5081182;28;20414;-77
2023/12/26 09:11:03;;;;;;;18.00;2.88;;;8.50;79.20;;;;;;5086638;28;20947;-77
2023/12/26 09:13:29;;;;;;;17.35;2.92;;;8.50;79.50;;;;;;5090973;28;20415;-77
2023/12/26 09:15:55;;;;;;;14.18;2.60;;;8.50;79.80;;;;;;5079332;28;21065;-77
2023/12/26 09:18:20;;;;;;;16.17;2.80;;;8.50;79.90;;;;;;5089682;28;20429;-77
2023/12/26 09:20:46;;;;;;;18.47;2.80;;;8.60;80.40;;;;;;5079015;28;20944;-77
2023/12/26 09:23:12;;;;;;;14.07;3.20;;;8.50;79.60;;;;;;5086428;28;20451;-77
2023/12/26 09:25:38;;;;;;;16.45;2.78;;;8.60;78.60;;;;;;5080545;28;20484;-77
2023/12/26 09:28:05;;;;;;;16.10;2.47;;;8.60;78.70;;;;;;5090916;28;21119;-77
2023/12/26 09:30:31;;;;;;;16.70;3.30;;;8.60;78.60;;;;;;5104100;28;21015;-77
2023/12/26 09:32:56;;;;;;;12.43;2.43;;;8.60;78.80;;;;;;5102250;28;20420;-78
2023/12/26 09:35:22;;;;;;;22.57;3.33;;;8.60;78.00;;;;;;5078044;28;20409;-78
2023/12/26 09:37:47;;;;;;;17.73;2.53;;;8.70;77.20;;;;;;5086052;28;20412;-77
2023/12/26 09:40:13;;;;;;;14.97;2.43;;;8.70;76.40;;;;;;5083815;28;20488;-78
2023/12/26 09:42:39;;;;;;;17.27;3.25;;;8.70;76.80;;;;;;5091947;28;20892;-78
2023/12/26 09:45:09;;;;;;;16.05;2.95;;;8.60;76.40;;;;;;5092332;28;20401;-78
2023/12/26 09:47:36;;;;;;;16.23;3.13;;;8.70;75.90;;;;;;5086827;28;20739;-78
2023/12/26 09:50:02;;;;;;;14.75;2.65;;;8.70;72.40;;;;;;5091308;28;20489;-78
2023/12/26 09:52:31;;;;;;;19.02;2.67;;;8.70;73.80;;;;;;5093462;28;20398;-77
2023/12/26 09:54:58;;;;;;;14.65;2.50;;;8.70;66.80;;;;;;5091538;28;20505;-78
2023/12/26 09:57:23;;;;;;;14.57;2.45;;;8.70;69.30;;;;;;5089360;28;20938;-78
2023/12/26 09:59:51;;;;;;;18.73;2.60;;;8.70;68.20;;;;;;5089776;28;20482;-78
2023/12/26 10:02:16;;;;;;;19.25;3.13;;;8.80;65.00;;;;;;5093479;28;20440;-78
2023/12/26 10:04:42;;;;;;;14.80;2.30;;;8.80;64.20;;;;;;5089730;28;20444;-78
2023/12/26 10:07:09;;;;;;;15.27;2.57;;;8.80;64.00;;;;;;5089659;28;20430;-78
2023/12/26 10:09:35;;;;;;;15.65;2.55;;;8.80;63.00;;;;;;5087824;28;20398;-78
2023/12/26 10:12:01;;;;;;;18.20;2.70;;;8.80;65.90;;;;;;5104897;28;20482;-78
2023/12/26 10:14:29;;;;;;;16.75;2.75;;;8.80;64.10;;;;;;5107221;28;20487;-78
2023/12/26 10:16:56;;;;;;;14.77;2.22;;;8.80;63.30;;;;;;5093324;28;20396;-78
2023/12/26 10:19:22;;;;;;;16.08;2.80;;;8.80;64.50;;;;;;5105494;28;20865;-78
2023/12/26 10:21:50;;;;;;;19.35;3.15;;;8.80;62.80;;;;;;5104674;28;20411;-78
2023/12/26 10:24:16;;;;;;;22.33;3.63;;;8.90;61.90;;;;;;5106332;28;20404;-78
2023/12/26 10:26:42;;;;;;;15.87;2.53;;;8.90;62.80;;;;;;5104892;28;20475;-78
2023/12/26 10:29:15;;;;;;;14.37;2.63;;;9.00;62.10;;;;;;5105839;28;20540;-80
2023/12/26 10:31:42;;;;;;;17.63;2.83;;;9.00;58.80;;;;;;5108077;27;20411;-78
2023/12/26 10:34:16;;;;;;;14.65;2.60;;;9.10;57.70;;;;;;5093119;28;20396;-78
2023/12/26 10:36:49;;;;;;;17.58;3.00;;;9.10;54.10;;;;;;5097239;28;20469;-78
2023/12/26 10:39:16;;;;;;;15.60;3.40;;;9.10;55.30;;;;;;5092987;28;20440;-77
2023/12/26 10:41:46;;;;;;;14.70;3.28;;;9.10;56.00;;;;;;5097375;28;20981;-78
2023/12/26 10:44:15;;;;;;;17.73;2.75;;;9.10;52.60;;;;;;5095582;28;20422;-78
2023/12/26 10:46:41;;;;;;;18.90;2.70;;;9.10;50.60;;;;;;5079086;28;20410;-78
2023/12/26 10:49:10;;;;;;;18.65;3.13;;;9.10;49.90;;;;;;5090165;28;20418;-78
2023/12/26 10:51:41;;;;;;;14.88;2.78;;;9.10;50.00;;;;;;5087670;28;20423;-78
2023/12/26 10:54:07;;;;;;;14.88;2.63;;;9.10;50.80;;;;;;5096638;28;20426;-77
2023/12/26 10:56:33;;;;;;;14.80;2.67;;;9.10;49.90;;;;;;5100545;28;20433;-78
2023/12/26 10:59:00;;;;;;;17.60;3.10;;;9.20;49.80;;;;;;5096045;28;20536;-78
2023/12/26 11:01:26;;;;;;;14.48;2.75;;;9.20;50.80;;;;;;5094401;28;20495;-78
2023/12/26 11:03:53;;;;;;;17.58;3.17;;;9.20;52.10;;;;;;5095378;28;21143;-77
2023/12/26 11:06:19;;;;;;;15.00;2.60;;;9.20;48.60;;;;;;5090810;28;20426;-77
2023/12/26 11:08:45;;;;;;;15.30;2.92;;;9.20;50.60;;;;;;5093591;28;20432;-77
2023/12/26 11:11:11;;;;;;;15.17;2.67;;;9.10;51.30;;;;;;5097341;28;20783;-77
2023/12/26 11:13:38;;;;;;;17.88;3.17;;;9.20;52.70;;;;;;5094177;28;20778;-77
2023/12/26 11:16:04;;;;;;;19.70;2.97;;;9.10;50.70;;;;;;5098226;28;20435;-78
2023/12/26 11:18:30;;;;;;;14.43;2.97;;;9.10;50.40;;;;;;5088498;28;20486;-78
2023/12/26 11:20:55;;;;;;;15.75;2.88;;;9.10;51.90;;;;;;5099743;28;20882;-77
2023/12/26 11:23:23;;;;;;;16.15;3.05;;;9.10;51.50;;;;;;5089335;28;20418;-78
2023/12/26 11:25:51;;;;;;;16.83;2.88;;;9.20;52.50;;;;;;5100672;28;20925;-78
2023/12/26 11:28:17;;;;;;;18.07;3.17;;;9.10;52.70;;;;;;5089931;28;20420;-78
2023/12/26 11:30:43;;;;;;;20.33;3.60;;;9.10;53.40;;;;;;5097913;28;20505;-78
2023/12/26 11:33:09;;;;;;;21.05;3.45;;;9.10;53.30;;;;;;5094340;28;20434;-77
2023/12/26 11:35:36;;;;;;;16.23;2.90;;;9.10;53.40;;;;;;5106261;28;20407;-77
2023/12/26 11:38:02;;;;;;;15.63;3.10;;;9.20;55.40;;;;;;5094307;28;20420;-77
2023/12/26 11:40:29;;;;;;;16.80;3.08;;;9.10;54.90;;;;;;5105836;28;20428;-77
2023/12/26 11:42:55;;;;;;;19.30;3.17;;;9.10;55.80;;;;;;5098731;28;20480;-77
2023/12/26 11:45:21;;;;;;;19.20;3.37;;;9.10;57.90;;;;;;5088676;28;20405;-77
2023/12/26 11:47:47;;;;;;;16.47;3.30;;;9.10;58.90;;;;;;5092849;28;20432;-77
2023/12/26 11:50:13;;;;;;;20.00;3.22;;;9.00;61.50;;;;;;5105469;28;20442;-77
2023/12/26 11:52:39;;;;;;;17.58;3.13;;;9.00;64.10;;;;;;5103655;28;20475;-77
2023/12/26 11:55:04;;;;;;;16.20;2.60;;;8.90;66.10;;;;;;5106443;28;20403;-77
2023/12/26 11:57:30;;;;;;;19.07;2.93;;;8.90;66.70;;;;;;5097410;28;20471;-77
2023/12/26 11:59:55;;;;;;;13.25;2.80;;;8.90;67.70;;;;;;5098610;28;20437;-77
2023/12/26 12:02:21;;;;;;;20.00;3.07;;;8.90;69.00;;;;;;5101479;28;20419;-77
2023/12/26 12:04:47;;;;;;;18.95;3.42;;;8.90;71.10;;;;;;5095061;28;20421;-77
2023/12/26 12:07:12;;;;;;;18.13;2.90;;;8.80;74.00;;;;;;5089727;28;20422;-78
2023/12/26 12:09:38;;;;;;;19.07;3.60;;;8.70;75.00;;;;;;5100856;28;20532;-77
2023/12/26 12:12:04;;;;;;;14.60;2.47;;;8.70;74.90;;;;;;5091635;28;20438;-78
2023/12/26 12:14:30;;;;;;;18.70;3.10;;;8.70;75.60;;;;;;5099746;28;20969;-78
2023/12/26 12:17:02;;;;;;;16.30;3.00;;;8.70;77.10;;;;;;5091414;28;20528;-78
2023/12/26 12:19:28;;;;;;;18.77;2.95;;;8.70;78.00;;;;;;5108770;28;20424;-78
2023/12/26 12:21:54;;;;;;;16.45;3.28;;;8.70;77.30;;;;;;5094339;28;20484;-77
2023/12/26 12:24:19;;;;;;;19.10;2.80;;;8.80;75.20;;;;;;5108639;28;20480;-78
2023/12/26 12:27:04;;;;;;;19.92;2.95;;;8.80;74.30;;;;;;5101382;28;20400;-77
2023/12/26 12:29:56;;;;;;;15.73;2.72;;;8.90;72.20;;;;;;5101416;28;21496;-77
2023/12/26 12:32:21;;;;;;;17.20;2.45;;;9.00;70.00;;;;;;5103961;28;20435;-77
2023/12/26 12:35:12;;;;;;;15.90;2.72;;;9.00;69.80;;;;;;5105888;28;21206;-77
2023/12/26 12:37:38;;;;;;;15.88;3.10;;;9.10;70.20;;;;;;5105757;28;20448;-77
2023/12/26 12:40:05;;;;;;;16.55;2.92;;;9.10;67.50;;;;;;5100055;28;20425;-77
2023/12/26 12:42:33;;;;;;;17.13;2.93;;;9.10;68.50;;;;;;5090541;28;20409;-77